sensor_id;sensor_type;location;lat;lon;timestamp;pressure;altitude;pressure_sealevel;temperature;humidity
26823;BME280;14852;51.910;8.878;2023-02-15T00:01:52;101147.78;;;3.77;60.03
26823;BME280;14852;51.910;8.878;2023-02-15T00:04:21;101141.78;;;3.77;60.21
26823;BME280;14852;51.910;8.878;2023-02-15T00:06:48;101141.78;;;3.74;59.92
26823;BME280;14852;51.910;8.878;2023-02-15T00:09:14;101132.38;;;3.71;59.85
26823;BME280;14852;51.910;8.878;2023-02-15T00:11:40;101129.78;;;3.70;60.09
26823;BME280;14852;51.910;8.878;2023-02-15T00:14:16;101134.94;;;3.70;60.61
26823;BME280;14852;51.910;8.878;2023-02-15T00:16:43;101128.97;;;3.68;60.39
26823;BME280;14852;51.910;8.878;2023-02-15T00:19:11;101133.25;;;3.67;60.44
26823;BME280;14852;51.910;8.878;2023-02-15T00:21:39;101127.25;;;3.65;60.34
26823;BME280;14852;51.910;8.878;2023-02-15T00:24:07;101122.97;;;3.62;60.45
26823;BME280;14852;51.910;8.878;2023-02-15T00:26:34;101123.81;;;3.58;60.56
26823;BME280;14852;51.910;8.878;2023-02-15T00:29:00;101122.13;;;3.59;60.25
26823;BME280;14852;51.910;8.878;2023-02-15T00:31:28;101117.00;;;3.57;60.26
26823;BME280;14852;51.910;8.878;2023-02-15T00:34:01;101120.44;;;3.56;60.34
26823;BME280;14852;51.910;8.878;2023-02-15T00:36:27;101114.44;;;3.53;60.51
26823;BME280;14852;51.910;8.878;2023-02-15T00:38:52;101106.72;;;3.50;60.61
26823;BME280;14852;51.910;8.878;2023-02-15T00:41:18;101111.00;;;3.48;60.49
26823;BME280;14852;51.910;8.878;2023-02-15T00:43:44;101111.03;;;3.45;60.71
26823;BME280;14852;51.910;8.878;2023-02-15T00:46:10;101116.16;;;3.42;60.50
26823;BME280;14852;51.910;8.878;2023-02-15T00:48:36;101117.88;;;3.40;60.56
26823;BME280;14852;51.910;8.878;2023-02-15T00:51:03;101114.44;;;3.38;60.91
26823;BME280;14852;51.910;8.878;2023-02-15T00:53:29;101114.44;;;3.35;60.80
26823;BME280;14852;51.910;8.878;2023-02-15T00:55:56;101117.91;;;3.31;60.68
26823;BME280;14852;51.910;8.878;2023-02-15T00:58:21;101112.75;;;3.29;60.59
26823;BME280;14852;51.910;8.878;2023-02-15T01:00:48;101113.59;;;3.26;60.80
26823;BME280;14852;51.910;8.878;2023-02-15T01:03:15;101111.88;;;3.24;60.64
26823;BME280;14852;51.910;8.878;2023-02-15T01:05:42;101114.47;;;3.21;60.84
26823;BME280;14852;51.910;8.878;2023-02-15T01:08:07;101115.34;;;3.20;60.67
26823;BME280;14852;51.910;8.878;2023-02-15T01:10:34;101111.91;;;3.18;60.97
26823;BME280;14852;51.910;8.878;2023-02-15T01:13:00;101106.75;;;3.15;60.93
26823;BME280;14852;51.910;8.878;2023-02-15T01:15:26;101107.66;;;3.11;61.16
26823;BME280;14852;51.910;8.878;2023-02-15T01:17:52;101101.66;;;3.07;61.13
26823;BME280;14852;51.910;8.878;2023-02-15T01:20:23;101108.47;;;3.04;61.17
26823;BME280;14852;51.910;8.878;2023-02-15T01:22:50;101109.34;;;3.01;61.31
26823;BME280;14852;51.910;8.878;2023-02-15T01:25:18;101105.94;;;2.99;61.17
26823;BME280;14852;51.910;8.878;2023-02-15T01:27:44;101099.94;;;2.96;61.48
26823;BME280;14852;51.910;8.878;2023-02-15T01:30:13;101100.78;;;2.95;61.48
26823;BME280;14852;51.910;8.878;2023-02-15T01:32:40;101105.91;;;2.93;61.50
26823;BME280;14852;51.910;8.878;2023-02-15T01:35:07;101101.63;;;2.90;61.71
26823;BME280;14852;51.910;8.878;2023-02-15T01:37:34;101100.78;;;2.88;61.40
26823;BME280;14852;51.910;8.878;2023-02-15T01:40:03;101099.06;;;2.84;61.42
26823;BME280;14852;51.910;8.878;2023-02-15T01:42:30;101095.66;;;2.82;61.63
26823;BME280;14852;51.910;8.878;2023-02-15T01:45:03;101093.06;;;2.79;61.97
26823;BME280;14852;51.910;8.878;2023-02-15T01:47:47;101082.81;;;2.79;61.78
26823;BME280;14852;51.910;8.878;2023-02-15T01:50:34;101089.66;;;2.76;61.80
26823;BME280;14852;51.910;8.878;2023-02-15T01:53:26;101083.69;;;2.75;61.68
26823;BME280;14852;51.910;8.878;2023-02-15T01:56:05;101081.09;;;2.74;61.57
26823;BME280;14852;51.910;8.878;2023-02-15T01:58:34;101083.66;;;2.74;61.72
26823;BME280;14852;51.910;8.878;2023-02-15T02:01:01;101084.53;;;2.74;61.75
26823;BME280;14852;51.910;8.878;2023-02-15T02:03:41;101087.09;;;2.76;61.94
26823;BME280;14852;51.910;8.878;2023-02-15T02:06:10;101075.97;;;2.75;61.71
26823;BME280;14852;51.910;8.878;2023-02-15T02:08:39;101080.25;;;2.79;61.33
26823;BME280;14852;51.910;8.878;2023-02-15T02:11:13;101076.81;;;2.77;61.54
26823;BME280;14852;51.910;8.878;2023-02-15T02:13:43;101078.56;;;2.77;62.09
26823;BME280;14852;51.910;8.878;2023-02-15T02:25:33;101069.97;;;2.78;62.02
26823;BME280;14852;51.910;8.878;2023-02-15T02:28:27;101074.25;;;2.79;61.85
26823;BME280;14852;51.910;8.878;2023-02-15T02:33:54;101062.25;;;2.78;62.28
26823;BME280;14852;51.910;8.878;2023-02-15T02:37:06;101052.88;;;2.77;62.19
26823;BME280;14852;51.910;8.878;2023-02-15T02:42:38;101058.00;;;2.75;62.71
26823;BME280;14852;51.910;8.878;2023-02-15T02:45:14;101047.75;;;2.72;62.99
26823;BME280;14852;51.910;8.878;2023-02-15T02:48:25;101054.59;;;2.73;62.93
26823;BME280;14852;51.910;8.878;2023-02-15T02:50:43;101044.31;;;2.72;62.79
26823;BME280;14852;51.910;8.878;2023-02-15T02:53:09;101046.03;;;2.73;63.11
26823;BME280;14852;51.910;8.878;2023-02-15T02:55:53;101041.75;;;2.73;63.47
26823;BME280;14852;51.910;8.878;2023-02-15T02:58:45;101038.31;;;2.77;63.02
26823;BME280;14852;51.910;8.878;2023-02-15T03:01:54;101026.38;;;2.76;62.93
26823;BME280;14852;51.910;8.878;2023-02-15T03:04:24;101028.06;;;2.76;62.88
26823;BME280;14852;51.910;8.878;2023-02-15T03:07:03;101028.06;;;2.74;62.96
26823;BME280;14852;51.910;8.878;2023-02-15T03:09:42;101028.06;;;2.74;62.95
26823;BME280;14852;51.910;8.878;2023-02-15T03:12:34;101037.47;;;2.80;62.96
26823;BME280;14852;51.910;8.878;2023-02-15T03:15:24;101026.34;;;2.79;63.09
26823;BME280;14852;51.910;8.878;2023-02-15T03:17:57;101033.19;;;2.79;63.10
26823;BME280;14852;51.910;8.878;2023-02-15T03:20:35;101029.75;;;2.81;62.89
26823;BME280;14852;51.910;8.878;2023-02-15T03:23:07;101032.34;;;2.84;62.87
26823;BME280;14852;51.910;8.878;2023-02-15T03:25:41;101028.06;;;2.83;63.01
26823;BME280;14852;51.910;8.878;2023-02-15T03:28:13;101028.06;;;2.88;63.11
26823;BME280;14852;51.910;8.878;2023-02-15T03:30:43;101015.22;;;2.91;63.02
26823;BME280;14852;51.910;8.878;2023-02-15T03:33:11;101025.47;;;2.92;62.80
26823;BME280;14852;51.910;8.878;2023-02-15T03:35:53;101022.91;;;2.96;62.96
26823;BME280;14852;51.910;8.878;2023-02-15T03:38:29;101016.06;;;2.96;62.70
26823;BME280;14852;51.910;8.878;2023-02-15T03:40:59;101012.63;;;2.92;62.82
26823;BME280;14852;51.910;8.878;2023-02-15T03:49:42;101010.06;;;2.89;63.31
26823;BME280;14852;51.910;8.878;2023-02-15T03:52:11;101015.22;;;2.88;63.20
26823;BME280;14852;51.910;8.878;2023-02-15T03:54:40;101010.09;;;2.86;63.26
26823;BME280;14852;51.910;8.878;2023-02-15T03:57:26;101014.34;;;2.89;63.09
26823;BME280;14852;51.910;8.878;2023-02-15T04:00:22;101013.53;;;2.85;63.33
26823;BME280;14852;51.910;8.878;2023-02-15T04:03:43;101012.66;;;2.86;63.24
26823;BME280;14852;51.910;8.878;2023-02-15T04:06:10;101009.22;;;2.81;63.22
26823;BME280;14852;51.910;8.878;2023-02-15T04:08:36;101011.81;;;2.83;63.38
26823;BME280;14852;51.910;8.878;2023-02-15T04:11:20;101005.81;;;2.81;63.28
26823;BME280;14852;51.910;8.878;2023-02-15T04:13:46;101009.22;;;2.78;63.73
26823;BME280;14852;51.910;8.878;2023-02-15T04:16:12;101003.22;;;2.78;63.69
26823;BME280;14852;51.910;8.878;2023-02-15T04:18:43;100993.81;;;2.78;63.92
26823;BME280;14852;51.910;8.878;2023-02-15T04:21:30;100998.97;;;2.78;63.47
26823;BME280;14852;51.910;8.878;2023-02-15T04:24:15;100989.53;;;2.77;63.62
26823;BME280;14852;51.910;8.878;2023-02-15T04:27:00;100988.72;;;2.77;63.47
26823;BME280;14852;51.910;8.878;2023-02-15T04:29:27;100988.72;;;2.74;63.63
26823;BME280;14852;51.910;8.878;2023-02-15T04:31:55;100987.00;;;2.73;63.86
26823;BME280;14852;51.910;8.878;2023-02-15T04:34:21;100987.84;;;2.72;63.76
26823;BME280;14852;51.910;8.878;2023-02-15T04:36:46;100990.44;;;2.72;64.24
26823;BME280;14852;51.910;8.878;2023-02-15T04:39:19;100978.44;;;2.69;64.20
26823;BME280;14852;51.910;8.878;2023-02-15T04:41:45;100981.88;;;2.68;63.87
26823;BME280;14852;51.910;8.878;2023-02-15T04:44:11;100982.72;;;2.70;63.83
26823;BME280;14852;51.910;8.878;2023-02-15T04:46:37;100977.59;;;2.75;63.79
26823;BME280;14852;51.910;8.878;2023-02-15T04:49:03;100971.59;;;2.73;63.84
26823;BME280;14852;51.910;8.878;2023-02-15T04:51:29;100971.59;;;2.73;63.91
26823;BME280;14852;51.910;8.878;2023-02-15T04:53:55;100972.47;;;2.76;63.65
26823;BME280;14852;51.910;8.878;2023-02-15T04:56:22;100966.44;;;2.77;63.70
26823;BME280;14852;51.910;8.878;2023-02-15T04:58:48;100966.47;;;2.76;63.97
26823;BME280;14852;51.910;8.878;2023-02-15T05:01:14;100958.78;;;2.74;64.00
26823;BME280;14852;51.910;8.878;2023-02-15T05:03:40;100963.06;;;2.75;63.78
26823;BME280;14852;51.910;8.878;2023-02-15T05:06:06;100962.19;;;2.75;63.91
26823;BME280;14852;51.910;8.878;2023-02-15T05:08:32;100953.66;;;2.73;64.00
26823;BME280;14852;51.910;8.878;2023-02-15T05:10:58;100966.47;;;2.73;64.02
26823;BME280;14852;51.910;8.878;2023-02-15T05:13:24;100962.19;;;2.70;64.45
26823;BME280;14852;51.910;8.878;2023-02-15T05:15:52;100953.63;;;2.68;64.30
26823;BME280;14852;51.910;8.878;2023-02-15T05:18:19;100960.50;;;2.65;64.46
26823;BME280;14852;51.910;8.878;2023-02-15T05:20:45;100950.25;;;2.62;64.57
26823;BME280;14852;51.910;8.878;2023-02-15T05:23:11;100958.78;;;2.59;64.53
26823;BME280;14852;51.910;8.878;2023-02-15T05:25:37;100945.97;;;2.61;64.44
26823;BME280;14852;51.910;8.878;2023-02-15T05:28:25;100942.53;;;2.63;64.54
26823;BME280;14852;51.910;8.878;2023-02-15T05:31:06;100940.84;;;2.64;64.08
26823;BME280;14852;51.910;8.878;2023-02-15T05:33:33;100945.97;;;2.64;64.38
26823;BME280;14852;51.910;8.878;2023-02-15T05:36:00;100951.94;;;2.70;64.30
26823;BME280;14852;51.910;8.878;2023-02-15T05:38:26;100961.34;;;2.70;64.31
26823;BME280;14852;51.910;8.878;2023-02-15T05:40:52;100956.22;;;2.71;64.24
26823;BME280;14852;51.910;8.878;2023-02-15T05:43:18;100953.66;;;2.71;64.56
26823;BME280;14852;51.910;8.878;2023-02-15T05:45:46;100954.50;;;2.72;64.37
26823;BME280;14852;51.910;8.878;2023-02-15T05:48:12;100948.50;;;2.73;64.25
26823;BME280;14852;51.910;8.878;2023-02-15T05:57:07;100942.53;;;2.74;63.93
26823;BME280;14852;51.910;8.878;2023-02-15T05:59:33;100947.66;;;2.72;64.03
26823;BME280;14852;51.910;8.878;2023-02-15T06:01:59;100951.06;;;2.71;64.17
26823;BME280;14852;51.910;8.878;2023-02-15T06:04:25;100945.94;;;2.71;64.38
26823;BME280;14852;51.910;8.878;2023-02-15T06:06:50;100944.22;;;2.70;64.15
26823;BME280;14852;51.910;8.878;2023-02-15T06:09:16;100949.38;;;2.70;64.41
26823;BME280;14852;51.910;8.878;2023-02-15T06:11:44;100946.78;;;2.69;64.73
26823;BME280;14852;51.910;8.878;2023-02-15T06:14:11;100946.78;;;2.70;64.48
26823;BME280;14852;51.910;8.878;2023-02-15T06:16:37;100942.53;;;2.72;64.19
26823;BME280;14852;51.910;8.878;2023-02-15T06:19:03;100937.38;;;2.74;64.54
26823;BME280;14852;51.910;8.878;2023-02-15T06:21:30;100939.97;;;2.75;64.32
26823;BME280;14852;51.910;8.878;2023-02-15T06:23:56;100940.78;;;2.77;64.37
26823;BME280;14852;51.910;8.878;2023-02-15T06:26:22;100949.34;;;2.79;64.00
26823;BME280;14852;51.910;8.878;2023-02-15T06:28:47;100938.22;;;2.80;64.05
26823;BME280;14852;51.910;8.878;2023-02-15T06:31:13;100933.09;;;2.79;64.44
26823;BME280;14852;51.910;8.878;2023-02-15T06:33:39;100943.34;;;2.77;64.25
26823;BME280;14852;51.910;8.878;2023-02-15T06:36:05;100948.50;;;2.76;64.18
26823;BME280;14852;51.910;8.878;2023-02-15T06:38:31;100949.34;;;2.78;64.32
26823;BME280;14852;51.910;8.878;2023-02-15T06:40:57;100946.81;;;2.76;64.09
26823;BME280;14852;51.910;8.878;2023-02-15T06:43:23;100949.34;;;2.78;64.35
26823;BME280;14852;51.910;8.878;2023-02-15T06:45:48;100956.19;;;2.80;64.01
26823;BME280;14852;51.910;8.878;2023-02-15T06:48:14;100957.91;;;2.81;64.20
26823;BME280;14852;51.910;8.878;2023-02-15T06:50:40;100954.47;;;2.78;64.40
26823;BME280;14852;51.910;8.878;2023-02-15T06:53:06;100948.50;;;2.79;64.36
26823;BME280;14852;51.910;8.878;2023-02-15T06:55:31;100950.19;;;2.80;64.06
26823;BME280;14852;51.910;8.878;2023-02-15T06:57:57;100945.06;;;2.80;64.23
26823;BME280;14852;51.910;8.878;2023-02-15T07:00:23;100951.91;;;2.84;64.08
26823;BME280;14852;51.910;8.878;2023-02-15T07:02:57;100938.22;;;2.86;64.14
26823;BME280;14852;51.910;8.878;2023-02-15T07:05:25;100947.63;;;2.87;64.24
26823;BME280;14852;51.910;8.878;2023-02-15T07:07:59;100935.63;;;2.92;64.04
26823;BME280;14852;51.910;8.878;2023-02-15T07:10:25;100939.06;;;2.93;63.88
26823;BME280;14852;51.910;8.878;2023-02-15T07:12:51;100927.94;;;2.99;64.00
26823;BME280;14852;51.910;8.878;2023-02-15T07:15:18;100936.47;;;2.93;64.15
26823;BME280;14852;51.910;8.878;2023-02-15T07:17:46;100937.34;;;2.92;64.22
26823;BME280;14852;51.910;8.878;2023-02-15T07:20:19;100935.63;;;2.94;63.95
26823;BME280;14852;51.910;8.878;2023-02-15T07:22:45;100924.50;;;3.00;64.26
26823;BME280;14852;51.910;8.878;2023-02-15T07:25:12;100927.91;;;3.00;63.73
26823;BME280;14852;51.910;8.878;2023-02-15T07:27:39;100927.91;;;3.00;64.10
26823;BME280;14852;51.910;8.878;2023-02-15T07:30:07;100927.91;;;3.02;63.77
26823;BME280;14852;51.910;8.878;2023-02-15T07:32:33;100926.19;;;3.01;64.05
26823;BME280;14852;51.910;8.878;2023-02-15T07:34:59;100922.78;;;2.99;64.07
26823;BME280;14852;51.910;8.878;2023-02-15T07:37:26;100924.47;;;3.01;63.95
26823;BME280;14852;51.910;8.878;2023-02-15T07:39:52;100926.19;;;3.07;63.96
26823;BME280;14852;51.910;8.878;2023-02-15T07:42:18;100925.31;;;3.06;64.06
26823;BME280;14852;51.910;8.878;2023-02-15T07:44:46;100922.75;;;3.09;64.12
26823;BME280;14852;51.910;8.878;2023-02-15T07:47:11;100914.16;;;3.16;63.78
26823;BME280;14852;51.910;8.878;2023-02-15T07:49:37;100918.41;;;3.23;63.79
26823;BME280;14852;51.910;8.878;2023-02-15T07:52:04;100920.09;;;3.32;63.96
26823;BME280;14852;51.910;8.878;2023-02-15T07:54:30;100912.41;;;3.32;63.71
26823;BME280;14852;51.910;8.878;2023-02-15T07:56:56;100908.06;;;3.37;63.79
26823;BME280;14852;51.910;8.878;2023-02-15T07:59:21;100899.50;;;3.41;63.52
26823;BME280;14852;51.910;8.878;2023-02-15T08:01:47;100897.75;;;3.48;63.63
26823;BME280;14852;51.910;8.878;2023-02-15T08:04:13;100902.81;;;3.58;63.40
26823;BME280;14852;51.910;8.878;2023-02-15T08:06:39;100905.31;;;3.75;63.21
26823;BME280;14852;51.910;8.878;2023-02-15T08:09:07;100911.25;;;3.83;62.73
26823;BME280;14852;51.910;8.878;2023-02-15T08:11:35;100911.22;;;3.85;62.87
26823;BME280;14852;51.910;8.878;2023-02-15T08:14:23;100900.03;;;3.93;63.09
26823;BME280;14852;51.910;8.878;2023-02-15T08:16:54;100899.03;;;4.13;62.64
26823;BME280;14852;51.910;8.878;2023-02-15T08:19:27;100892.00;;;4.33;62.13
26823;BME280;14852;51.910;8.878;2023-02-15T08:21:59;100898.75;;;4.46;61.92
26823;BME280;14852;51.910;8.878;2023-02-15T08:24:28;100879.91;;;4.41;61.78
26823;BME280;14852;51.910;8.878;2023-02-15T08:26:55;100878.19;;;4.42;62.21
26823;BME280;14852;51.910;8.878;2023-02-15T08:29:23;100875.53;;;4.51;62.03
26823;BME280;14852;51.910;8.878;2023-02-15T08:31:54;100874.63;;;4.58;62.03
26823;BME280;14852;51.910;8.878;2023-02-15T08:34:20;100876.28;;;4.62;61.77
26823;BME280;14852;51.910;8.878;2023-02-15T08:36:46;100874.41;;;4.78;61.54
26823;BME280;14852;51.910;8.878;2023-02-15T08:39:14;100867.84;;;5.23;61.52
26823;BME280;14852;51.910;8.878;2023-02-15T08:41:44;100868.19;;;5.61;60.38
26823;BME280;14852;51.910;8.878;2023-02-15T08:44:10;100869.97;;;5.56;59.92
26823;BME280;14852;51.910;8.878;2023-02-15T08:46:39;100861.38;;;5.57;60.25
26823;BME280;14852;51.910;8.878;2023-02-15T08:49:05;100865.59;;;5.61;60.24
26823;BME280;14852;51.910;8.878;2023-02-15T08:51:37;100865.63;;;5.60;60.31
26823;BME280;14852;51.910;8.878;2023-02-15T08:54:07;100861.84;;;5.83;60.65
26823;BME280;14852;51.910;8.878;2023-02-15T08:56:40;100862.63;;;5.89;60.21
26823;BME280;14852;51.910;8.878;2023-02-15T08:59:07;100857.91;;;6.15;60.43
26823;BME280;14852;51.910;8.878;2023-02-15T09:01:37;100848.59;;;6.56;59.54
26823;BME280;14852;51.910;8.878;2023-02-15T09:04:07;100845.56;;;7.21;58.70
26823;BME280;14852;51.910;8.878;2023-02-15T09:06:34;100841.63;;;7.81;57.65
26823;BME280;14852;51.910;8.878;2023-02-15T09:09:01;100840.75;;;8.17;57.01
26823;BME280;14852;51.910;8.878;2023-02-15T09:11:33;100841.25;;;8.95;55.47
26823;BME280;14852;51.910;8.878;2023-02-15T09:14:02;100831.97;;;9.17;54.92
26823;BME280;14852;51.910;8.878;2023-02-15T09:16:31;100835.88;;;9.58;54.63
26823;BME280;14852;51.910;8.878;2023-02-15T09:18:57;100836.94;;;10.33;53.53
26823;BME280;14852;51.910;8.878;2023-02-15T09:21:25;100832.94;;;10.73;52.47
26823;BME280;14852;51.910;8.878;2023-02-15T09:23:59;100834.19;;;10.86;52.33
26823;BME280;14852;51.910;8.878;2023-02-15T09:26:28;100830.84;;;10.34;53.43
26823;BME280;14852;51.910;8.878;2023-02-15T09:28:58;100849.63;;;9.90;54.09
26823;BME280;14852;51.910;8.878;2023-02-15T09:31:28;100839.22;;;9.90;54.41
26823;BME280;14852;51.910;8.878;2023-02-15T09:33:55;100841.03;;;9.32;54.99
26823;BME280;14852;51.910;8.878;2023-02-15T09:36:27;100839.38;;;9.29;55.64
26823;BME280;14852;51.910;8.878;2023-02-15T09:38:57;100841.50;;;9.72;54.94
26823;BME280;14852;51.910;8.878;2023-02-15T09:54:06;100827.31;;;11.97;51.30
26823;BME280;14852;51.910;8.878;2023-02-15T09:56:47;100829.06;;;12.17;50.83
26823;BME280;14852;51.910;8.878;2023-02-15T10:00:00;100826.22;;;12.43;50.15
26823;BME280;14852;51.910;8.878;2023-02-15T10:06:28;100823.22;;;12.52;49.91
26823;BME280;14852;51.910;8.878;2023-02-15T10:20:45;100826.25;;;9.90;57.61
26823;BME280;14852;51.910;8.878;2023-02-15T10:24:35;100816.75;;;9.89;58.29
26823;BME280;14852;51.910;8.878;2023-02-15T10:26:40;100818.34;;;9.93;58.92
26823;BME280;14852;51.910;8.878;2023-02-15T10:29:37;100819.13;;;9.95;59.48
26823;BME280;14852;51.910;8.878;2023-02-15T10:32:23;100811.84;;;10.06;59.04
26823;BME280;14852;51.910;8.878;2023-02-15T10:35:05;100814.25;;;10.12;59.06
26823;BME280;14852;51.910;8.878;2023-02-15T10:38:00;100819.50;;;10.10;58.65
26823;BME280;14852;51.910;8.878;2023-02-15T10:44:13;100815.00;;;10.65;58.39
26823;BME280;14852;51.910;8.878;2023-02-15T10:46:58;100811.59;;;11.33;55.80
26823;BME280;14852;51.910;8.878;2023-02-15T10:50:13;100810.31;;;12.09;54.00
26823;BME280;14852;51.910;8.878;2023-02-15T10:53:21;100800.00;;;12.26;52.27
26823;BME280;14852;51.910;8.878;2023-02-15T10:56:34;100796.97;;;12.16;51.63
26823;BME280;14852;51.910;8.878;2023-02-15T11:08:09;100801.09;;;11.13;55.41
26823;BME280;14852;51.910;8.878;2023-02-15T11:10:58;100786.59;;;11.07;54.74
26823;BME280;14852;51.910;8.878;2023-02-15T11:13:33;100790.94;;;11.07;54.72
26823;BME280;14852;51.910;8.878;2023-02-15T11:16:11;100787.41;;;11.08;55.33
26823;BME280;14852;51.910;8.878;2023-02-15T11:19:32;100785.47;;;11.36;55.18
26823;BME280;14852;51.910;8.878;2023-02-15T11:22:03;100781.06;;;11.38;54.26
26823;BME280;14852;51.910;8.878;2023-02-15T11:24:34;100786.63;;;11.51;53.98
26823;BME280;14852;51.910;8.878;2023-02-15T11:27:19;100783.09;;;11.74;54.87
26823;BME280;14852;51.910;8.878;2023-02-15T11:30:12;100789.69;;;11.82;54.61
26823;BME280;14852;51.910;8.878;2023-02-15T11:32:47;100782.91;;;11.78;54.21
26823;BME280;14852;51.910;8.878;2023-02-15T11:38:26;100782.00;;;11.57;55.35
26823;BME280;14852;51.910;8.878;2023-02-15T11:41:11;100776.91;;;11.54;55.02
26823;BME280;14852;51.910;8.878;2023-02-15T11:44:06;100767.00;;;11.42;55.27
26823;BME280;14852;51.910;8.878;2023-02-15T11:46:36;100777.81;;;11.32;55.23
26823;BME280;14852;51.910;8.878;2023-02-15T11:49:04;100769.38;;;11.27;56.25
26823;BME280;14852;51.910;8.878;2023-02-15T11:51:32;100765.81;;;11.29;56.01
26823;BME280;14852;51.910;8.878;2023-02-15T11:54:03;100772.13;;;11.44;56.62
26823;BME280;14852;51.910;8.878;2023-02-15T11:56:31;100769.25;;;11.51;55.86
26823;BME280;14852;51.910;8.878;2023-02-15T11:59:18;100764.50;;;11.61;55.50
26823;BME280;14852;51.910;8.878;2023-02-15T12:01:50;100754.84;;;11.65;55.74
26823;BME280;14852;51.910;8.878;2023-02-15T12:04:26;100757.34;;;11.66;54.70
26823;BME280;14852;51.910;8.878;2023-02-15T12:09:36;100754.75;;;11.66;54.36
26823;BME280;14852;51.910;8.878;2023-02-15T12:12:30;100743.13;;;11.75;53.79
26823;BME280;14852;51.910;8.878;2023-02-15T12:15:03;100738.84;;;11.74;52.84
26823;BME280;14852;51.910;8.878;2023-02-15T12:17:34;100751.81;;;11.75;52.94
26823;BME280;14852;51.910;8.878;2023-02-15T12:20:24;100750.22;;;11.71;52.09
26823;BME280;14852;51.910;8.878;2023-02-15T12:23:03;100736.19;;;11.75;52.41
26823;BME280;14852;51.910;8.878;2023-02-15T12:28:04;100732.84;;;11.72;52.05
26823;BME280;14852;51.910;8.878;2023-02-15T12:30:34;100724.19;;;11.71;51.79
26823;BME280;14852;51.910;8.878;2023-02-15T12:33:17;100727.75;;;11.69;51.65
26823;BME280;14852;51.910;8.878;2023-02-15T12:35:46;100722.81;;;11.63;51.47
26823;BME280;14852;51.910;8.878;2023-02-15T12:40:41;100718.81;;;11.54;51.61
26823;BME280;14852;51.910;8.878;2023-02-15T12:43:33;100707.31;;;11.59;51.90
26823;BME280;14852;51.910;8.878;2023-02-15T12:48:43;100697.81;;;11.58;51.72
26823;BME280;14852;51.910;8.878;2023-02-15T12:51:15;100700.34;;;11.60;51.87
26823;BME280;14852;51.910;8.878;2023-02-15T12:53:41;100698.53;;;11.62;51.83
26823;BME280;14852;51.910;8.878;2023-02-15T12:56:09;100692.28;;;11.66;51.99
26823;BME280;14852;51.910;8.878;2023-02-15T12:58:40;100696.44;;;11.70;52.00
26823;BME280;14852;51.910;8.878;2023-02-15T13:04:28;100683.72;;;11.84;52.24
26823;BME280;14852;51.910;8.878;2023-02-15T13:07:02;100677.66;;;11.84;51.76
26823;BME280;14852;51.910;8.878;2023-02-15T13:12:26;100667.50;;;11.98;51.92
26823;BME280;14852;51.910;8.878;2023-02-15T13:14:54;100669.22;;;11.99;52.10
26823;BME280;14852;51.910;8.878;2023-02-15T13:17:33;100667.16;;;12.06;51.61
26823;BME280;14852;51.910;8.878;2023-02-15T13:20:20;100665.00;;;12.15;51.77
26823;BME280;14852;51.910;8.878;2023-02-15T13:22:52;100661.28;;;12.21;51.61
26823;BME280;14852;51.910;8.878;2023-02-15T13:25:21;100665.59;;;12.22;51.74
26823;BME280;14852;51.910;8.878;2023-02-15T13:27:54;100655.78;;;12.27;51.63
26823;BME280;14852;51.910;8.878;2023-02-15T13:30:26;100656.44;;;12.32;51.50
26823;BME280;14852;51.910;8.878;2023-02-15T13:32:58;100652.00;;;12.34;51.72
26823;BME280;14852;51.910;8.878;2023-02-15T13:35:29;100650.94;;;12.38;51.87
26823;BME280;14852;51.910;8.878;2023-02-15T13:38:56;100641.94;;;12.45;51.65
26823;BME280;14852;51.910;8.878;2023-02-15T13:44:47;100637.63;;;12.63;51.44
26823;BME280;14852;51.910;8.878;2023-02-15T13:47:44;100642.84;;;12.63;51.48
26823;BME280;14852;51.910;8.878;2023-02-15T13:53:47;100634.22;;;12.61;51.59
26823;BME280;14852;51.910;8.878;2023-02-15T13:56:53;100631.84;;;12.56;51.60
26823;BME280;14852;51.910;8.878;2023-02-15T14:00:03;100640.44;;;12.58;51.43
26823;BME280;14852;51.910;8.878;2023-02-15T14:12:30;100633.13;;;12.66;51.45
26823;BME280;14852;51.910;8.878;2023-02-15T14:15:41;100626.28;;;12.64;51.32
26823;BME280;14852;51.910;8.878;2023-02-15T14:18:40;100617.53;;;12.65;51.29
26823;BME280;14852;51.910;8.878;2023-02-15T14:21:32;100615.00;;;12.63;51.27
26823;BME280;14852;51.910;8.878;2023-02-15T14:24:38;100616.81;;;12.61;51.26
26823;BME280;14852;51.910;8.878;2023-02-15T14:30:10;100621.34;;;12.58;51.23
26823;BME280;14852;51.910;8.878;2023-02-15T14:35:52;100610.34;;;12.51;51.31
26823;BME280;14852;51.910;8.878;2023-02-15T14:39:06;100606.84;;;12.52;51.50
26823;BME280;14852;51.910;8.878;2023-02-15T14:42:24;100604.50;;;12.46;51.54
26823;BME280;14852;51.910;8.878;2023-02-15T14:45:14;100599.53;;;12.42;51.72
26823;BME280;14852;51.910;8.878;2023-02-15T14:50:43;100598.94;;;12.35;51.81
26823;BME280;14852;51.910;8.878;2023-02-15T14:53:35;100593.66;;;12.37;51.45
26823;BME280;14852;51.910;8.878;2023-02-15T14:56:18;100602.50;;;12.34;51.77
26823;BME280;14852;51.910;8.878;2023-02-15T15:01:31;100598.47;;;12.27;52.01
26823;BME280;14852;51.910;8.878;2023-02-15T15:04:33;100598.69;;;12.22;52.01
26823;BME280;14852;51.910;8.878;2023-02-15T15:07:23;100599.72;;;12.18;51.88
26823;BME280;14852;51.910;8.878;2023-02-15T15:12:49;100600.00;;;12.12;51.97
26823;BME280;14852;51.910;8.878;2023-02-15T15:20:49;100596.19;;;12.01;52.26
26823;BME280;14852;51.910;8.878;2023-02-15T15:25:45;100593.38;;;11.86;52.12
26823;BME280;14852;51.910;8.878;2023-02-15T15:36:54;100594.91;;;11.70;51.99
26823;BME280;14852;51.910;8.878;2023-02-15T15:43:09;100582.31;;;11.61;52.46
26823;BME280;14852;51.910;8.878;2023-02-15T15:46:13;100584.59;;;11.48;52.39
26823;BME280;14852;51.910;8.878;2023-02-15T15:48:43;100586.88;;;11.36;52.68
26823;BME280;14852;51.910;8.878;2023-02-15T15:51:18;100583.69;;;11.29;52.74
26823;BME280;14852;51.910;8.878;2023-02-15T15:53:49;100578.94;;;11.18;52.68